sensor_id;sensor_type;location;lat;lon;timestamp;temperature;humidity
10123;DHT22;5101;49.038;8.710;2023-09-08T00:00:30;18.40;98.20
10123;DHT22;5101;49.038;8.710;2023-09-08T00:02:56;18.40;98.50
10123;DHT22;5101;49.038;8.710;2023-09-08T00:05:21;18.40;98.70
10123;DHT22;5101;49.038;8.710;2023-09-08T00:07:47;18.40;99.00
10123;DHT22;5101;49.038;8.710;2023-09-08T00:10:12;18.40;99.10
10123;DHT22;5101;49.038;8.710;2023-09-08T00:12:38;18.40;99.30
10123;DHT22;5101;49.038;8.710;2023-09-08T00:15:06;18.40;99.50
10123;DHT22;5101;49.038;8.710;2023-09-08T00:17:32;18.40;99.40
10123;DHT22;5101;49.038;8.710;2023-09-08T00:19:57;18.30;99.30
10123;DHT22;5101;49.038;8.710;2023-09-08T00:22:23;18.30;99.30
10123;DHT22;5101;49.038;8.710;2023-09-08T00:24:48;18.30;99.20
10123;DHT22;5101;49.038;8.710;2023-09-08T00:27:14;18.30;99.40
10123;DHT22;5101;49.038;8.710;2023-09-08T00:29:39;18.30;99.60
10123;DHT22;5101;49.038;8.710;2023-09-08T00:32:05;18.20;99.70
10123;DHT22;5101;49.038;8.710;2023-09-08T00:34:31;18.20;99.80
10123;DHT22;5101;49.038;8.710;2023-09-08T00:36:56;18.20;99.60
10123;DHT22;5101;49.038;8.710;2023-09-08T00:39:22;18.20;99.60
10123;DHT22;5101;49.038;8.710;2023-09-08T00:41:47;18.10;99.50
10123;DHT22;5101;49.038;8.710;2023-09-08T00:44:13;18.20;99.40
10123;DHT22;5101;49.038;8.710;2023-09-08T00:46:39;18.10;99.40
10123;DHT22;5101;49.038;8.710;2023-09-08T00:49:05;18.10;99.40
10123;DHT22;5101;49.038;8.710;2023-09-08T00:51:31;18.10;99.40
10123;DHT22;5101;49.038;8.710;2023-09-08T00:53:57;18.10;99.40
10123;DHT22;5101;49.038;8.710;2023-09-08T00:56:23;18.00;99.30
10123;DHT22;5101;49.038;8.710;2023-09-08T00:58:48;18.00;99.40
10123;DHT22;5101;49.038;8.710;2023-09-08T01:01:14;18.00;99.50
10123;DHT22;5101;49.038;8.710;2023-09-08T01:03:42;18.00;99.60
10123;DHT22;5101;49.038;8.710;2023-09-08T01:06:08;18.00;99.60
10123;DHT22;5101;49.038;8.710;2023-09-08T01:08:35;17.90;99.60
10123;DHT22;5101;49.038;8.710;2023-09-08T01:11:02;17.90;99.70
10123;DHT22;5101;49.038;8.710;2023-09-08T01:13:27;17.90;99.80
10123;DHT22;5101;49.038;8.710;2023-09-08T01:15:53;17.90;99.90
10123;DHT22;5101;49.038;8.710;2023-09-08T01:18:18;17.90;99.80
10123;DHT22;5101;49.038;8.710;2023-09-08T01:23:48;17.80;99.70
10123;DHT22;5101;49.038;8.710;2023-09-08T01:26:20;17.80;99.80
10123;DHT22;5101;49.038;8.710;2023-09-08T01:28:49;17.80;99.90
10123;DHT22;5101;49.038;8.710;2023-09-08T01:31:16;17.80;99.90
10123;DHT22;5101;49.038;8.710;2023-09-08T01:33:42;17.70;99.90
10123;DHT22;5101;49.038;8.710;2023-09-08T01:36:08;17.70;99.90
10123;DHT22;5101;49.038;8.710;2023-09-08T01:38:34;17.70;99.90
10123;DHT22;5101;49.038;8.710;2023-09-08T01:40:59;17.70;99.90
10123;DHT22;5101;49.038;8.710;2023-09-08T01:43:27;17.70;99.90
10123;DHT22;5101;49.038;8.710;2023-09-08T01:45:52;17.70;99.90
10123;DHT22;5101;49.038;8.710;2023-09-08T01:48:18;17.60;99.90
10123;DHT22;5101;49.038;8.710;2023-09-08T01:50:43;17.60;99.90
10123;DHT22;5101;49.038;8.710;2023-09-08T01:53:09;17.60;99.90
10123;DHT22;5101;49.038;8.710;2023-09-08T01:55:34;17.50;99.90
10123;DHT22;5101;49.038;8.710;2023-09-08T01:58:00;17.50;99.90
10123;DHT22;5101;49.038;8.710;2023-09-08T02:00:26;17.50;99.90
10123;DHT22;5101;49.038;8.710;2023-09-08T02:02:51;17.40;99.90
10123;DHT22;5101;49.038;8.710;2023-09-08T02:05:17;17.40;99.90
10123;DHT22;5101;49.038;8.710;2023-09-08T02:07:42;17.30;99.90
10123;DHT22;5101;49.038;8.710;2023-09-08T02:10:08;17.30;99.90
10123;DHT22;5101;49.038;8.710;2023-09-08T02:12:35;17.30;99.90
10123;DHT22;5101;49.038;8.710;2023-09-08T02:15:00;17.30;99.90
10123;DHT22;5101;49.038;8.710;2023-09-08T02:17:26;17.30;99.90
10123;DHT22;5101;49.038;8.710;2023-09-08T02:19:51;17.30;99.90
10123;DHT22;5101;49.038;8.710;2023-09-08T02:22:18;17.30;99.90
10123;DHT22;5101;49.038;8.710;2023-09-08T02:24:43;17.30;99.90
10123;DHT22;5101;49.038;8.710;2023-09-08T02:27:09;17.20;99.90
10123;DHT22;5101;49.038;8.710;2023-09-08T02:29:34;17.20;99.90
10123;DHT22;5101;49.038;8.710;2023-09-08T02:32:00;17.20;99.90
10123;DHT22;5101;49.038;8.710;2023-09-08T02:34:26;17.20;99.90
10123;DHT22;5101;49.038;8.710;2023-09-08T02:36:51;17.20;99.90
10123;DHT22;5101;49.038;8.710;2023-09-08T02:39:17;17.10;99.90
10123;DHT22;5101;49.038;8.710;2023-09-08T02:41:42;17.10;99.90
10123;DHT22;5101;49.038;8.710;2023-09-08T02:44:08;17.10;99.90
10123;DHT22;5101;49.038;8.710;2023-09-08T02:46:33;17.00;99.90
10123;DHT22;5101;49.038;8.710;2023-09-08T02:48:59;17.00;99.90
10123;DHT22;5101;49.038;8.710;2023-09-08T02:51:24;17.00;99.90
10123;DHT22;5101;49.038;8.710;2023-09-08T02:53:50;17.00;99.90
10123;DHT22;5101;49.038;8.710;2023-09-08T02:56:15;16.90;99.90
10123;DHT22;5101;49.038;8.710;2023-09-08T02:58:41;16.90;99.90
10123;DHT22;5101;49.038;8.710;2023-09-08T03:01:16;16.90;99.90
10123;DHT22;5101;49.038;8.710;2023-09-08T03:03:46;16.90;99.90
10123;DHT22;5101;49.038;8.710;2023-09-08T03:06:12;16.80;99.90
10123;DHT22;5101;49.038;8.710;2023-09-08T03:08:38;16.80;99.90
10123;DHT22;5101;49.038;8.710;2023-09-08T03:11:04;16.80;99.90
10123;DHT22;5101;49.038;8.710;2023-09-08T03:13:31;16.70;99.90
10123;DHT22;5101;49.038;8.710;2023-09-08T03:15:56;16.70;99.90
10123;DHT22;5101;49.038;8.710;2023-09-08T03:18:22;16.70;99.90
10123;DHT22;5101;49.038;8.710;2023-09-08T03:20:51;16.70;99.90
10123;DHT22;5101;49.038;8.710;2023-09-08T03:23:16;16.80;99.90
10123;DHT22;5101;49.038;8.710;2023-09-08T03:25:43;16.70;99.90
10123;DHT22;5101;49.038;8.710;2023-09-08T03:28:08;16.70;99.90
10123;DHT22;5101;49.038;8.710;2023-09-08T03:30:34;16.70;99.90
10123;DHT22;5101;49.038;8.710;2023-09-08T03:32:59;16.70;99.90
10123;DHT22;5101;49.038;8.710;2023-09-08T03:35:25;16.70;99.90
10123;DHT22;5101;49.038;8.710;2023-09-08T03:37:50;16.70;99.90
10123;DHT22;5101;49.038;8.710;2023-09-08T03:40:16;16.70;99.90
10123;DHT22;5101;49.038;8.710;2023-09-08T03:42:41;16.70;99.90
10123;DHT22;5101;49.038;8.710;2023-09-08T03:45:08;16.70;99.90
10123;DHT22;5101;49.038;8.710;2023-09-08T03:47:34;16.70;99.90
10123;DHT22;5101;49.038;8.710;2023-09-08T03:49:59;16.70;99.90
10123;DHT22;5101;49.038;8.710;2023-09-08T03:52:25;16.70;99.90
10123;DHT22;5101;49.038;8.710;2023-09-08T03:54:51;16.60;99.90
10123;DHT22;5101;49.038;8.710;2023-09-08T03:57:17;16.60;99.90
10123;DHT22;5101;49.038;8.710;2023-09-08T03:59:42;16.60;99.90
10123;DHT22;5101;49.038;8.710;2023-09-08T04:02:08;16.60;99.90
10123;DHT22;5101;49.038;8.710;2023-09-08T04:04:33;16.60;99.90
10123;DHT22;5101;49.038;8.710;2023-09-08T04:06:59;16.60;99.90
10123;DHT22;5101;49.038;8.710;2023-09-08T04:09:24;16.60;99.90
10123;DHT22;5101;49.038;8.710;2023-09-08T04:11:50;16.50;99.90
10123;DHT22;5101;49.038;8.710;2023-09-08T04:14:16;16.50;99.90
10123;DHT22;5101;49.038;8.710;2023-09-08T04:16:41;16.50;99.90
10123;DHT22;5101;49.038;8.710;2023-09-08T04:19:06;16.40;99.90
10123;DHT22;5101;49.038;8.710;2023-09-08T04:21:32;16.40;99.90
10123;DHT22;5101;49.038;8.710;2023-09-08T04:23:57;16.40;99.90
10123;DHT22;5101;49.038;8.710;2023-09-08T04:26:23;16.40;99.90
10123;DHT22;5101;49.038;8.710;2023-09-08T04:28:48;16.30;99.90
10123;DHT22;5101;49.038;8.710;2023-09-08T04:31:14;16.30;99.90
10123;DHT22;5101;49.038;8.710;2023-09-08T04:33:40;16.20;99.90
10123;DHT22;5101;49.038;8.710;2023-09-08T04:36:05;16.20;99.90
10123;DHT22;5101;49.038;8.710;2023-09-08T04:38:30;16.20;99.90
10123;DHT22;5101;49.038;8.710;2023-09-08T04:40:56;16.20;99.90
10123;DHT22;5101;49.038;8.710;2023-09-08T04:43:22;16.20;99.90
10123;DHT22;5101;49.038;8.710;2023-09-08T04:45:47;16.20;99.90
10123;DHT22;5101;49.038;8.710;2023-09-08T04:48:13;16.20;99.90
10123;DHT22;5101;49.038;8.710;2023-09-08T04:50:38;16.20;99.90
10123;DHT22;5101;49.038;8.710;2023-09-08T04:53:04;16.20;99.90
10123;DHT22;5101;49.038;8.710;2023-09-08T04:55:29;16.10;99.90
10123;DHT22;5101;49.038;8.710;2023-09-08T04:57:55;16.10;99.90
10123;DHT22;5101;49.038;8.710;2023-09-08T05:00:20;16.10;99.90
10123;DHT22;5101;49.038;8.710;2023-09-08T05:02:46;16.10;99.90
10123;DHT22;5101;49.038;8.710;2023-09-08T05:05:11;16.10;99.90
10123;DHT22;5101;49.038;8.710;2023-09-08T05:07:37;16.00;99.90
10123;DHT22;5101;49.038;8.710;2023-09-08T05:10:02;16.00;99.90
10123;DHT22;5101;49.038;8.710;2023-09-08T05:12:28;16.00;99.90
10123;DHT22;5101;49.038;8.710;2023-09-08T05:14:53;16.00;99.90
10123;DHT22;5101;49.038;8.710;2023-09-08T05:17:23;16.00;99.90
10123;DHT22;5101;49.038;8.710;2023-09-08T05:19:49;16.00;99.90
10123;DHT22;5101;49.038;8.710;2023-09-08T05:22:14;16.00;99.90
10123;DHT22;5101;49.038;8.710;2023-09-08T05:24:39;16.00;99.90
10123;DHT22;5101;49.038;8.710;2023-09-08T05:27:05;16.00;99.90
10123;DHT22;5101;49.038;8.710;2023-09-08T05:29:30;16.00;99.90
10123;DHT22;5101;49.038;8.710;2023-09-08T05:31:56;16.00;99.90
10123;DHT22;5101;49.038;8.710;2023-09-08T05:34:21;16.00;99.90
10123;DHT22;5101;49.038;8.710;2023-09-08T05:36:47;16.00;99.90
10123;DHT22;5101;49.038;8.710;2023-09-08T05:39:15;16.00;99.90
10123;DHT22;5101;49.038;8.710;2023-09-08T05:41:40;16.10;99.90
10123;DHT22;5101;49.038;8.710;2023-09-08T05:44:06;16.10;99.90
10123;DHT22;5101;49.038;8.710;2023-09-08T05:46:31;16.10;99.90
10123;DHT22;5101;49.038;8.710;2023-09-08T05:48:57;16.20;99.90
10123;DHT22;5101;49.038;8.710;2023-09-08T05:51:22;16.20;99.90
10123;DHT22;5101;49.038;8.710;2023-09-08T05:53:48;16.20;99.90
10123;DHT22;5101;49.038;8.710;2023-09-08T05:56:13;16.30;99.90
10123;DHT22;5101;49.038;8.710;2023-09-08T05:58:39;16.30;99.90
10123;DHT22;5101;49.038;8.710;2023-09-08T06:01:04;16.40;99.90
10123;DHT22;5101;49.038;8.710;2023-09-08T06:03:30;16.40;99.90
10123;DHT22;5101;49.038;8.710;2023-09-08T06:05:59;16.50;99.90
10123;DHT22;5101;49.038;8.710;2023-09-08T06:08:24;16.50;99.90
10123;DHT22;5101;49.038;8.710;2023-09-08T06:10:50;16.60;99.90
10123;DHT22;5101;49.038;8.710;2023-09-08T06:13:15;16.60;99.90
10123;DHT22;5101;49.038;8.710;2023-09-08T06:15:41;16.70;99.90
10123;DHT22;5101;49.038;8.710;2023-09-08T06:18:06;16.70;99.90
10123;DHT22;5101;49.038;8.710;2023-09-08T06:20:32;16.80;99.90
10123;DHT22;5101;49.038;8.710;2023-09-08T06:22:57;16.90;99.90
10123;DHT22;5101;49.038;8.710;2023-09-08T06:25:23;16.90;99.90
10123;DHT22;5101;49.038;8.710;2023-09-08T06:27:48;17.00;99.90
10123;DHT22;5101;49.038;8.710;2023-09-08T06:30:14;17.00;99.90
10123;DHT22;5101;49.038;8.710;2023-09-08T06:32:41;17.10;99.90
10123;DHT22;5101;49.038;8.710;2023-09-08T06:35:07;17.20;99.90
10123;DHT22;5101;49.038;8.710;2023-09-08T06:37:37;17.20;99.90
10123;DHT22;5101;49.038;8.710;2023-09-08T06:40:03;17.40;99.90
10123;DHT22;5101;49.038;8.710;2023-09-08T06:42:29;17.40;99.90
10123;DHT22;5101;49.038;8.710;2023-09-08T06:44:55;17.50;99.90
10123;DHT22;5101;49.038;8.710;2023-09-08T06:47:20;17.60;99.90
10123;DHT22;5101;49.038;8.710;2023-09-08T06:49:46;17.70;99.90
10123;DHT22;5101;49.038;8.710;2023-09-08T06:52:12;17.80;99.90
10123;DHT22;5101;49.038;8.710;2023-09-08T06:54:38;17.90;99.90
10123;DHT22;5101;49.038;8.710;2023-09-08T06:57:03;18.00;99.90
10123;DHT22;5101;49.038;8.710;2023-09-08T06:59:29;18.10;99.90
10123;DHT22;5101;49.038;8.710;2023-09-08T07:01:54;18.20;99.90
10123;DHT22;5101;49.038;8.710;2023-09-08T07:04:20;18.30;99.90
10123;DHT22;5101;49.038;8.710;2023-09-08T07:06:45;18.40;99.90
10123;DHT22;5101;49.038;8.710;2023-09-08T07:09:12;18.50;99.90
10123;DHT22;5101;49.038;8.710;2023-09-08T07:11:37;18.60;99.90
10123;DHT22;5101;49.038;8.710;2023-09-08T07:14:03;18.70;99.90
10123;DHT22;5101;49.038;8.710;2023-09-08T07:16:28;18.80;99.90
10123;DHT22;5101;49.038;8.710;2023-09-08T07:18:54;19.00;99.90
10123;DHT22;5101;49.038;8.710;2023-09-08T07:21:20;19.10;99.90
10123;DHT22;5101;49.038;8.710;2023-09-08T07:23:45;19.50;99.90
10123;DHT22;5101;49.038;8.710;2023-09-08T07:26:11;19.80;99.90
10123;DHT22;5101;49.038;8.710;2023-09-08T07:28:36;20.30;99.90
10123;DHT22;5101;49.038;8.710;2023-09-08T07:31:03;20.80;99.90
10123;DHT22;5101;49.038;8.710;2023-09-08T07:33:29;21.30;99.50
10123;DHT22;5101;49.038;8.710;2023-09-08T07:35:54;21.80;97.40
10123;DHT22;5101;49.038;8.710;2023-09-08T07:38:20;22.40;95.70
10123;DHT22;5101;49.038;8.710;2023-09-08T07:40:45;23.00;94.40
10123;DHT22;5101;49.038;8.710;2023-09-08T07:43:11;23.70;92.60
10123;DHT22;5101;49.038;8.710;2023-09-08T07:45:36;24.30;91.10
10123;DHT22;5101;49.038;8.710;2023-09-08T07:48:03;24.90;88.70
10123;DHT22;5101;49.038;8.710;2023-09-08T07:50:29;25.50;85.50
10123;DHT22;5101;49.038;8.710;2023-09-08T07:52:56;26.00;83.40
10123;DHT22;5101;49.038;8.710;2023-09-08T07:55:22;26.70;81.30
10123;DHT22;5101;49.038;8.710;2023-09-08T07:57:50;27.20;77.90
10123;DHT22;5101;49.038;8.710;2023-09-08T08:00:16;27.80;74.80
10123;DHT22;5101;49.038;8.710;2023-09-08T08:02:47;28.40;71.70
10123;DHT22;5101;49.038;8.710;2023-09-08T08:05:13;28.90;69.70
10123;DHT22;5101;49.038;8.710;2023-09-08T08:07:39;29.50;67.80
10123;DHT22;5101;49.038;8.710;2023-09-08T08:10:06;29.90;66.10
10123;DHT22;5101;49.038;8.710;2023-09-08T08:12:31;30.40;63.80
10123;DHT22;5101;49.038;8.710;2023-09-08T08:14:57;30.90;60.90
10123;DHT22;5101;49.038;8.710;2023-09-08T08:17:24;31.20;57.90
10123;DHT22;5101;49.038;8.710;2023-09-08T08:19:51;31.40;55.10
10123;DHT22;5101;49.038;8.710;2023-09-08T08:22:16;31.40;54.30
10123;DHT22;5101;49.038;8.710;2023-09-08T08:24:42;31.90;53.60
10123;DHT22;5101;49.038;8.710;2023-09-08T08:27:07;32.30;51.20
10123;DHT22;5101;49.038;8.710;2023-09-08T08:29:32;32.70;50.10
10123;DHT22;5101;49.038;8.710;2023-09-08T08:31:58;33.20;48.10
10123;DHT22;5101;49.038;8.710;2023-09-08T08:34:23;33.50;45.40
10123;DHT22;5101;49.038;8.710;2023-09-08T08:36:49;33.90;44.60
10123;DHT22;5101;49.038;8.710;2023-09-08T08:39:14;34.30;42.90
10123;DHT22;5101;49.038;8.710;2023-09-08T08:41:40;34.30;41.40
10123;DHT22;5101;49.038;8.710;2023-09-08T08:44:07;34.40;40.30
10123;DHT22;5101;49.038;8.710;2023-09-08T08:46:34;34.30;39.70
10123;DHT22;5101;49.038;8.710;2023-09-08T08:49:03;34.10;40.10
10123;DHT22;5101;49.038;8.710;2023-09-08T08:51:30;33.80;40.90
10123;DHT22;5101;49.038;8.710;2023-09-08T08:53:59;34.10;39.90
10123;DHT22;5101;49.038;8.710;2023-09-08T08:56:30;33.80;40.60
10123;DHT22;5101;49.038;8.710;2023-09-08T08:58:56;33.80;40.20
10123;DHT22;5101;49.038;8.710;2023-09-08T09:01:22;34.20;40.60
10123;DHT22;5101;49.038;8.710;2023-09-08T09:03:50;34.60;40.40
10123;DHT22;5101;49.038;8.710;2023-09-08T09:06:16;34.90;39.30
10123;DHT22;5101;49.038;8.710;2023-09-08T09:08:43;35.20;39.00
10123;DHT22;5101;49.038;8.710;2023-09-08T09:11:10;35.50;38.60
10123;DHT22;5101;49.038;8.710;2023-09-08T09:13:36;35.70;38.60
10123;DHT22;5101;49.038;8.710;2023-09-08T09:16:02;35.70;37.80
10123;DHT22;5101;49.038;8.710;2023-09-08T09:18:32;35.90;38.00
10123;DHT22;5101;49.038;8.710;2023-09-08T09:21:01;35.90;37.20
10123;DHT22;5101;49.038;8.710;2023-09-08T09:23:31;36.00;36.40
10123;DHT22;5101;49.038;8.710;2023-09-08T09:25:58;36.00;36.40
10123;DHT22;5101;49.038;8.710;2023-09-08T09:28:24;36.30;36.80
10123;DHT22;5101;49.038;8.710;2023-09-08T09:30:52;36.40;36.70
10123;DHT22;5101;49.038;8.710;2023-09-08T09:33:20;36.60;35.60
10123;DHT22;5101;49.038;8.710;2023-09-08T09:35:52;36.60;35.50
10123;DHT22;5101;49.038;8.710;2023-09-08T09:38:19;36.70;36.10
10123;DHT22;5101;49.038;8.710;2023-09-08T09:40:46;36.80;35.70
10123;DHT22;5101;49.038;8.710;2023-09-08T09:43:12;36.90;35.50
10123;DHT22;5101;49.038;8.710;2023-09-08T09:45:39;37.00;35.50
10123;DHT22;5101;49.038;8.710;2023-09-08T09:48:06;37.00;34.90
10123;DHT22;5101;49.038;8.710;2023-09-08T09:50:34;36.90;34.50
10123;DHT22;5101;49.038;8.710;2023-09-08T09:53:01;36.90;34.90
10123;DHT22;5101;49.038;8.710;2023-09-08T09:55:28;37.10;35.40
10123;DHT22;5101;49.038;8.710;2023-09-08T09:57:57;37.20;35.40
10123;DHT22;5101;49.038;8.710;2023-09-08T10:00:25;37.30;34.40
10123;DHT22;5101;49.038;8.710;2023-09-08T10:02:51;37.20;34.50
10123;DHT22;5101;49.038;8.710;2023-09-08T10:05:18;37.30;34.30
10123;DHT22;5101;49.038;8.710;2023-09-08T10:07:48;37.30;34.10
10123;DHT22;5101;49.038;8.710;2023-09-08T10:10:15;37.40;34.40
10123;DHT22;5101;49.038;8.710;2023-09-08T10:12:44;37.20;33.80
10123;DHT22;5101;49.038;8.710;2023-09-08T10:15:13;37.10;34.90
10123;DHT22;5101;49.038;8.710;2023-09-08T10:17:44;37.20;35.00
10123;DHT22;5101;49.038;8.710;2023-09-08T10:20:11;37.40;35.00
10123;DHT22;5101;49.038;8.710;2023-09-08T10:22:42;37.50;34.40
10123;DHT22;5101;49.038;8.710;2023-09-08T10:25:09;37.50;33.30
10123;DHT22;5101;49.038;8.710;2023-09-08T10:27:34;37.60;33.00
10123;DHT22;5101;49.038;8.710;2023-09-08T10:30:04;37.50;33.40
10123;DHT22;5101;49.038;8.710;2023-09-08T10:32:35;37.30;33.30
10123;DHT22;5101;49.038;8.710;2023-09-08T10:35:03;37.10;34.00
10123;DHT22;5101;49.038;8.710;2023-09-08T10:37:29;37.10;35.10
10123;DHT22;5101;49.038;8.710;2023-09-08T10:39:55;36.90;34.80
10123;DHT22;5101;49.038;8.710;2023-09-08T10:42:23;36.70;35.60
10123;DHT22;5101;49.038;8.710;2023-09-08T10:45:00;36.60;35.50
10123;DHT22;5101;49.038;8.710;2023-09-08T10:47:39;36.40;35.40
10123;DHT22;5101;49.038;8.710;2023-09-08T10:50:06;36.10;35.90
10123;DHT22;5101;49.038;8.710;2023-09-08T10:52:34;35.80;35.90
10123;DHT22;5101;49.038;8.710;2023-09-08T10:55:00;35.60;35.90
10123;DHT22;5101;49.038;8.710;2023-09-08T10:57:27;35.40;36.90
10123;DHT22;5101;49.038;8.710;2023-09-08T10:59:57;35.40;37.50
10123;DHT22;5101;49.038;8.710;2023-09-08T11:05:02;35.20;38.70
10123;DHT22;5101;49.038;8.710;2023-09-08T11:07:27;35.10;39.40
10123;DHT22;5101;49.038;8.710;2023-09-08T11:09:53;34.90;39.50
10123;DHT22;5101;49.038;8.710;2023-09-08T11:12:19;34.80;39.70
10123;DHT22;5101;49.038;8.710;2023-09-08T11:14:49;34.60;39.70
10123;DHT22;5101;49.038;8.710;2023-09-08T11:17:14;34.60;40.00
10123;DHT22;5101;49.038;8.710;2023-09-08T11:19:45;34.60;40.10
10123;DHT22;5101;49.038;8.710;2023-09-08T11:22:11;34.50;39.90
10123;DHT22;5101;49.038;8.710;2023-09-08T11:24:38;34.40;40.40
10123;DHT22;5101;49.038;8.710;2023-09-08T11:27:04;34.40;40.80
10123;DHT22;5101;49.038;8.710;2023-09-08T11:29:30;34.30;41.70
10123;DHT22;5101;49.038;8.710;2023-09-08T11:31:56;34.30;41.20
10123;DHT22;5101;49.038;8.710;2023-09-08T11:34:22;34.20;41.40
10123;DHT22;5101;49.038;8.710;2023-09-08T11:36:47;34.20;41.00
10123;DHT22;5101;49.038;8.710;2023-09-08T11:39:14;34.30;41.20
10123;DHT22;5101;49.038;8.710;2023-09-08T11:41:39;34.30;40.60
10123;DHT22;5101;49.038;8.710;2023-09-08T11:44:05;34.10;40.80
10123;DHT22;5101;49.038;8.710;2023-09-08T11:46:31;34.00;41.50
10123;DHT22;5101;49.038;8.710;2023-09-08T11:48:56;34.00;43.10
10123;DHT22;5101;49.038;8.710;2023-09-08T11:51:23;33.90;42.60
10123;DHT22;5101;49.038;8.710;2023-09-08T11:53:49;33.70;42.30
10123;DHT22;5101;49.038;8.710;2023-09-08T11:56:14;33.60;43.70
10123;DHT22;5101;49.038;8.710;2023-09-08T11:58:41;33.40;43.80
10123;DHT22;5101;49.038;8.710;2023-09-08T12:01:07;33.40;43.80
10123;DHT22;5101;49.038;8.710;2023-09-08T12:03:33;33.40;44.20
10123;DHT22;5101;49.038;8.710;2023-09-08T12:05:58;33.40;44.80
10123;DHT22;5101;49.038;8.710;2023-09-08T12:08:25;33.40;44.70
10123;DHT22;5101;49.038;8.710;2023-09-08T12:10:53;33.40;44.30
10123;DHT22;5101;49.038;8.710;2023-09-08T12:13:23;33.40;44.60
10123;DHT22;5101;49.038;8.710;2023-09-08T12:15:49;33.30;45.50
10123;DHT22;5101;49.038;8.710;2023-09-08T12:18:14;33.30;45.10
10123;DHT22;5101;49.038;8.710;2023-09-08T12:20:44;33.10;45.50
10123;DHT22;5101;49.038;8.710;2023-09-08T12:23:19;33.10;45.40
10123;DHT22;5101;49.038;8.710;2023-09-08T12:25:47;33.10;45.00
10123;DHT22;5101;49.038;8.710;2023-09-08T12:28:13;33.10;45.60
10123;DHT22;5101;49.038;8.710;2023-09-08T12:30:39;33.00;45.20
10123;DHT22;5101;49.038;8.710;2023-09-08T12:33:04;32.90;44.30
10123;DHT22;5101;49.038;8.710;2023-09-08T12:35:30;32.60;46.90
10123;DHT22;5101;49.038;8.710;2023-09-08T12:38:01;32.50;47.10
10123;DHT22;5101;49.038;8.710;2023-09-08T12:40:28;32.60;47.60
10123;DHT22;5101;49.038;8.710;2023-09-08T12:42:54;32.60;46.50
10123;DHT22;5101;49.038;8.710;2023-09-08T12:45:21;32.60;46.40
10123;DHT22;5101;49.038;8.710;2023-09-08T12:47:48;32.50;47.60
10123;DHT22;5101;49.038;8.710;2023-09-08T12:50:13;32.60;47.00
10123;DHT22;5101;49.038;8.710;2023-09-08T12:52:39;32.60;46.80
10123;DHT22;5101;49.038;8.710;2023-09-08T12:55:05;32.60;47.00
10123;DHT22;5101;49.038;8.710;2023-09-08T12:57:31;32.70;46.60
10123;DHT22;5101;49.038;8.710;2023-09-08T12:59:57;32.80;46.80
10123;DHT22;5101;49.038;8.710;2023-09-08T13:02:23;32.80;45.00
10123;DHT22;5101;49.038;8.710;2023-09-08T13:04:48;32.70;45.70
10123;DHT22;5101;49.038;8.710;2023-09-08T13:07:18;32.70;45.80
10123;DHT22;5101;49.038;8.710;2023-09-08T13:09:44;32.70;44.80
10123;DHT22;5101;49.038;8.710;2023-09-08T13:12:09;32.80;44.00
10123;DHT22;5101;49.038;8.710;2023-09-08T13:14:36;32.80;43.60
10123;DHT22;5101;49.038;8.710;2023-09-08T13:17:02;32.70;44.70
10123;DHT22;5101;49.038;8.710;2023-09-08T13:19:27;32.80;44.00
10123;DHT22;5101;49.038;8.710;2023-09-08T13:21:53;32.60;43.50
10123;DHT22;5101;49.038;8.710;2023-09-08T13:24:18;32.50;44.20
10123;DHT22;5101;49.038;8.710;2023-09-08T13:26:46;32.40;45.10
10123;DHT22;5101;49.038;8.710;2023-09-08T13:29:11;32.20;46.90
10123;DHT22;5101;49.038;8.710;2023-09-08T13:31:37;32.10;46.10
10123;DHT22;5101;49.038;8.710;2023-09-08T13:34:02;32.10;45.70
10123;DHT22;5101;49.038;8.710;2023-09-08T13:36:27;32.10;46.70
10123;DHT22;5101;49.038;8.710;2023-09-08T13:38:53;32.10;46.80
10123;DHT22;5101;49.038;8.710;2023-09-08T13:41:18;32.20;46.80
10123;DHT22;5101;49.038;8.710;2023-09-08T13:43:44;32.20;46.00
10123;DHT22;5101;49.038;8.710;2023-09-08T13:46:09;32.10;45.40
10123;DHT22;5101;49.038;8.710;2023-09-08T13:48:35;32.00;44.70
10123;DHT22;5101;49.038;8.710;2023-09-08T13:51:04;32.00;46.40
10123;DHT22;5101;49.038;8.710;2023-09-08T13:53:30;32.00;48.40
10123;DHT22;5101;49.038;8.710;2023-09-08T13:55:58;32.00;50.40
10123;DHT22;5101;49.038;8.710;2023-09-08T13:58:24;31.90;49.40
10123;DHT22;5101;49.038;8.710;2023-09-08T14:00:50;31.90;48.60
10123;DHT22;5101;49.038;8.710;2023-09-08T14:03:17;31.80;48.30
10123;DHT22;5101;49.038;8.710;2023-09-08T14:05:43;31.70;48.90
10123;DHT22;5101;49.038;8.710;2023-09-08T14:08:09;31.60;48.50
10123;DHT22;5101;49.038;8.710;2023-09-08T14:10:35;31.50;48.10
10123;DHT22;5101;49.038;8.710;2023-09-08T14:13:01;31.50;47.80
10123;DHT22;5101;49.038;8.710;2023-09-08T14:15:26;31.40;49.20
10123;DHT22;5101;49.038;8.710;2023-09-08T14:17:52;31.50;50.60
10123;DHT22;5101;49.038;8.710;2023-09-08T14:20:18;31.50;51.70
10123;DHT22;5101;49.038;8.710;2023-09-08T14:22:44;31.50;51.70
10123;DHT22;5101;49.038;8.710;2023-09-08T14:25:09;31.40;51.60
10123;DHT22;5101;49.038;8.710;2023-09-08T14:27:35;31.40;51.00
10123;DHT22;5101;49.038;8.710;2023-09-08T14:30:03;31.40;51.60
10123;DHT22;5101;49.038;8.710;2023-09-08T14:32:29;31.30;51.50
10123;DHT22;5101;49.038;8.710;2023-09-08T14:34:54;31.40;50.30
10123;DHT22;5101;49.038;8.710;2023-09-08T14:37:21;31.30;46.70
10123;DHT22;5101;49.038;8.710;2023-09-08T14:39:47;31.20;46.20
10123;DHT22;5101;49.038;8.710;2023-09-08T14:42:12;31.10;46.50
10123;DHT22;5101;49.038;8.710;2023-09-08T14:44:39;31.20;46.90
10123;DHT22;5101;49.038;8.710;2023-09-08T14:47:04;31.10;46.50
10123;DHT22;5101;49.038;8.710;2023-09-08T14:49:30;31.10;47.20
10123;DHT22;5101;49.038;8.710;2023-09-08T14:51:55;31.10;47.50
10123;DHT22;5101;49.038;8.710;2023-09-08T14:54:21;31.10;47.50
10123;DHT22;5101;49.038;8.710;2023-09-08T14:56:46;31.00;46.50
10123;DHT22;5101;49.038;8.710;2023-09-08T14:59:12;30.90;46.90
10123;DHT22;5101;49.038;8.710;2023-09-08T15:01:37;31.00;47.00
10123;DHT22;5101;49.038;8.710;2023-09-08T15:04:06;30.90;46.40
10123;DHT22;5101;49.038;8.710;2023-09-08T15:06:31;30.90;46.40
10123;DHT22;5101;49.038;8.710;2023-09-08T15:08:57;30.90;46.40
10123;DHT22;5101;49.038;8.710;2023-09-08T15:11:22;30.80;47.20
10123;DHT22;5101;49.038;8.710;2023-09-08T15:13:48;30.70;46.90
10123;DHT22;5101;49.038;8.710;2023-09-08T15:16:13;30.70;48.10
10123;DHT22;5101;49.038;8.710;2023-09-08T15:18:39;30.70;47.80
10123;DHT22;5101;49.038;8.710;2023-09-08T15:21:05;30.60;47.30
10123;DHT22;5101;49.038;8.710;2023-09-08T15:23:31;30.60;47.70
10123;DHT22;5101;49.038;8.710;2023-09-08T15:25:57;30.60;48.50
10123;DHT22;5101;49.038;8.710;2023-09-08T15:28:23;30.50;49.20
10123;DHT22;5101;49.038;8.710;2023-09-08T15:30:50;30.50;48.50
10123;DHT22;5101;49.038;8.710;2023-09-08T15:33:16;30.50;49.30
10123;DHT22;5101;49.038;8.710;2023-09-08T15:35:44;30.40;49.60
10123;DHT22;5101;49.038;8.710;2023-09-08T15:38:10;30.40;47.30
10123;DHT22;5101;49.038;8.710;2023-09-08T15:40:38;30.30;46.70
10123;DHT22;5101;49.038;8.710;2023-09-08T15:43:04;30.30;46.40